createdAt,value
2023-03-06T00:00:34.329Z,2.59
2023-03-06T00:03:18.210Z,2.60
2023-03-06T00:06:01.857Z,2.61
2023-03-06T00:08:46.465Z,2.62
2023-03-06T00:11:29.684Z,2.57
2023-03-06T00:14:12.993Z,2.59
2023-03-06T00:16:57.906Z,2.62
2023-03-06T00:19:41.556Z,2.44
2023-03-06T00:22:24.832Z,2.48
2023-03-06T00:25:09.398Z,2.38
2023-03-06T00:27:53.015Z,2.46
2023-03-06T00:30:36.899Z,2.40
2023-03-06T00:33:21.599Z,2.43
2023-03-06T00:36:06.988Z,2.43
2023-03-06T00:38:50.607Z,2.46
2023-03-06T00:41:33.796Z,2.37
2023-03-06T00:44:17.084Z,2.48
2023-03-06T00:47:00.351Z,2.49
2023-03-06T00:49:45.812Z,2.52
2023-03-06T00:52:29.294Z,2.62
2023-03-06T00:55:13.114Z,2.68
2023-03-06T00:57:56.384Z,2.70
2023-03-06T01:00:41.170Z,2.74
2023-03-06T01:03:26.050Z,2.81
2023-03-06T01:06:11.231Z,2.87
2023-03-06T01:08:54.673Z,2.84
2023-03-06T01:11:38.024Z,2.71
2023-03-06T01:14:22.788Z,2.76
2023-03-06T01:17:06.681Z,2.80
2023-03-06T01:19:50.144Z,2.60
2023-03-06T01:22:35.211Z,2.69
2023-03-06T01:25:19.357Z,2.76
2023-03-06T01:28:02.776Z,2.76
2023-03-06T01:30:46.305Z,2.65
2023-03-06T01:33:29.900Z,2.59
2023-03-06T01:36:14.434Z,2.59
2023-03-06T01:39:01.365Z,2.48
2023-03-06T01:41:44.934Z,2.43
2023-03-06T01:44:28.194Z,2.24
2023-03-06T01:47:11.460Z,2.29
2023-03-06T01:49:55.043Z,2.30
2023-03-06T01:52:41.454Z,2.26
2023-03-06T01:55:29.238Z,2.24
2023-03-06T01:58:16.171Z,2.11
2023-03-06T02:00:59.840Z,1.89
2023-03-06T02:03:43.986Z,1.56
2023-03-06T02:06:27.208Z,1.45
2023-03-06T02:09:12.220Z,1.28
2023-03-06T02:11:57.264Z,1.08
2023-03-06T02:14:42.344Z,1.05
2023-03-06T02:17:25.854Z,0.90
2023-03-06T02:20:14.040Z,0.75
2023-03-06T02:23:05.564Z,0.66
2023-03-06T02:25:52.469Z,0.70
2023-03-06T02:28:36.064Z,0.73
2023-03-06T02:31:23.381Z,0.65
2023-03-06T02:34:29.406Z,0.67
2023-03-06T02:37:12.702Z,0.62
2023-03-06T02:40:03.035Z,0.55
2023-03-06T02:42:56.524Z,0.47
2023-03-06T02:45:45.307Z,0.28
2023-03-06T02:48:28.684Z,0.27
2023-03-06T02:51:12.090Z,0.28
2023-03-06T02:53:55.430Z,0.22
2023-03-06T02:56:38.693Z,0.24
2023-03-06T02:59:23.320Z,0.23
2023-03-06T03:02:10.624Z,0.19
2023-03-06T03:04:53.905Z,0.20
2023-03-06T03:07:37.536Z,0.16
2023-03-06T03:10:21.001Z,0.11
2023-03-06T03:13:04.206Z,0.15
2023-03-06T03:15:59.307Z,0.21
2023-03-06T03:18:44.999Z,0.34
2023-03-06T03:21:28.268Z,0.37
2023-03-06T03:24:11.831Z,0.36
2023-03-06T03:26:55.108Z,0.48
2023-03-06T03:29:38.282Z,0.51
2023-03-06T03:32:23.107Z,0.54
2023-03-06T03:35:07.637Z,0.57
2023-03-06T03:37:52.702Z,0.61
2023-03-06T03:40:36.008Z,0.66
2023-03-06T03:43:19.851Z,0.68
2023-03-06T03:46:03.178Z,0.66
2023-03-06T03:48:48.335Z,0.68
2023-03-06T03:51:32.106Z,0.61
2023-03-06T03:54:17.745Z,0.47
2023-03-06T03:57:01.298Z,0.50
2023-03-06T03:59:44.468Z,0.52
2023-03-06T04:02:27.848Z,0.52
2023-03-06T04:05:14.739Z,0.48
2023-03-06T04:07:57.918Z,0.58
2023-03-06T04:10:41.147Z,0.56
2023-03-06T04:13:24.766Z,0.62
2023-03-06T04:16:08.851Z,0.65
2023-03-06T04:18:52.130Z,0.70
2023-03-06T04:21:36.961Z,0.67
2023-03-06T04:24:20.999Z,0.59
2023-03-06T04:27:04.375Z,0.65
2023-03-06T04:29:47.776Z,0.65
2023-03-06T04:32:31.046Z,0.75
2023-03-06T04:35:14.714Z,0.85
2023-03-06T04:37:59.904Z,0.86
2023-03-06T04:40:44.958Z,0.89
2023-03-06T04:43:28.647Z,0.96
2023-03-06T04:46:13.320Z,0.94
2023-03-06T04:48:56.599Z,1.06
2023-03-06T04:51:39.763Z,1.15
2023-03-06T04:54:24.394Z,1.17
2023-03-06T04:57:07.759Z,1.30
2023-03-06T04:59:50.963Z,1.35
2023-03-06T05:02:35.150Z,1.43
2023-03-06T05:05:19.704Z,1.61
2023-03-06T05:08:02.900Z,1.67
2023-03-06T05:10:47.978Z,1.66
2023-03-06T05:13:31.869Z,1.75
2023-03-06T05:16:15.174Z,1.85
2023-03-06T05:18:58.578Z,1.91
2023-03-06T05:21:41.822Z,1.97
2023-03-06T05:24:25.172Z,2.07
2023-03-06T05:27:09.864Z,1.96
2023-03-06T05:29:53.315Z,2.08
2023-03-06T05:32:36.594Z,2.15
2023-03-06T05:35:23.547Z,2.20
2023-03-06T05:38:07.141Z,2.30
2023-03-06T05:40:50.829Z,2.42
2023-03-06T05:43:35.564Z,2.59
2023-03-06T05:46:18.835Z,2.63
2023-03-06T05:49:02.468Z,2.63
2023-03-06T05:51:45.835Z,2.65
2023-03-06T05:54:29.504Z,2.71
2023-03-06T05:57:12.857Z,2.79
2023-03-06T05:59:58.723Z,2.91
2023-03-06T06:02:42.402Z,3.03
2023-03-06T06:05:25.570Z,3.50
2023-03-06T06:08:08.781Z,3.95
2023-03-06T06:10:53.450Z,4.17
2023-03-06T06:13:39.544Z,4.90
2023-03-06T06:16:25.835Z,5.84
2023-03-06T06:19:09.079Z,6.87
2023-03-06T06:21:54.269Z,7.54
2023-03-06T06:24:37.680Z,8.03
2023-03-06T06:27:21.082Z,8.51
2023-03-06T06:30:04.493Z,8.67
2023-03-06T06:32:49.225Z,9.54
2023-03-06T06:35:36.272Z,11.70
2023-03-06T06:38:19.653Z,13.40
2023-03-06T06:41:33.491Z,13.72
2023-03-06T06:44:14.060Z,15.24
2023-03-06T06:50:02.213Z,17.69
2023-03-06T06:52:45.591Z,19.76
2023-03-06T06:55:28.864Z,22.44
2023-03-06T06:58:12.156Z,24.58
2023-03-06T07:00:55.801Z,25.44
2023-03-06T07:03:39.820Z,26.68
2023-03-06T07:06:24.760Z,26.92
2023-03-06T07:09:08.201Z,26.55
2023-03-06T07:11:52.015Z,26.93
2023-03-06T07:14:35.217Z,23.84
2023-03-06T07:17:18.435Z,28.09
2023-03-06T07:20:01.756Z,28.71
2023-03-06T07:22:51.488Z,28.30
2023-03-06T07:25:35.351Z,28.53
2023-03-06T07:28:19.566Z,26.74
2023-03-06T07:31:03.310Z,27.08
2023-03-06T07:33:46.791Z,29.82
2023-03-06T07:36:30.220Z,29.65
2023-03-06T07:39:14.937Z,28.05
2023-03-06T07:41:58.810Z,31.26
2023-03-06T07:44:42.468Z,32.50
2023-03-06T07:47:25.675Z,33.17
2023-03-06T07:50:09.771Z,29.54
2023-03-06T07:52:54.223Z,31.50
2023-03-06T07:55:41.291Z,30.06
2023-03-06T07:58:25.523Z,30.75
2023-03-06T08:01:10.620Z,32.73
2023-03-06T08:03:54.441Z,33.49
2023-03-06T08:06:37.852Z,35.50
2023-03-06T08:09:21.289Z,34.13
2023-03-06T08:12:06.133Z,36.65
2023-03-06T08:14:49.435Z,37.41
2023-03-06T08:17:32.682Z,39.29
2023-03-06T08:20:15.906Z,38.89
2023-03-06T08:22:59.622Z,39.39
2023-03-06T08:25:43.142Z,38.04
2023-03-06T08:28:28.624Z,36.41
2023-03-06T08:31:14.345Z,39.44
2023-03-06T08:33:59.077Z,39.89
2023-03-06T08:36:42.748Z,37.24
2023-03-06T08:39:26.012Z,36.11
2023-03-06T08:42:11.244Z,39.01
2023-03-06T08:44:55.970Z,39.65
2023-03-06T08:47:39.221Z,40.87
2023-03-06T08:50:22.865Z,40.61
2023-03-06T08:53:06.235Z,41.84
2023-03-06T08:55:49.614Z,40.23
2023-03-06T08:58:33.071Z,40.97
2023-03-06T09:01:20.143Z,42.80
2023-03-06T09:04:05.875Z,43.82
2023-03-06T09:06:49.322Z,41.17
2023-03-06T09:09:32.606Z,41.15
2023-03-06T09:12:15.950Z,40.06
2023-03-06T09:14:59.757Z,42.71
2023-03-06T09:17:45.507Z,41.41
2023-03-06T09:20:28.911Z,39.78
2023-03-06T09:23:13.381Z,40.57
2023-03-06T09:25:58.512Z,40.84
2023-03-06T09:28:42.984Z,41.73
2023-03-06T09:31:26.630Z,41.21
2023-03-06T09:34:11.523Z,39.90
2023-03-06T09:36:57.056Z,39.63
2023-03-06T09:39:41.048Z,37.82
2023-03-06T09:42:25.455Z,39.26
2023-03-06T09:45:13.211Z,39.66
2023-03-06T09:48:01.969Z,36.33
2023-03-06T09:50:53.089Z,34.76
2023-03-06T09:53:59.216Z,31.83
2023-03-06T09:56:48.662Z,31.41
2023-03-06T09:59:33.391Z,34.91
2023-03-06T10:02:24.725Z,38.41
2023-03-06T10:05:15.254Z,38.34
2023-03-06T10:08:03.595Z,40.72
2023-03-06T10:10:52.392Z,41.69
2023-03-06T10:13:42.373Z,41.66
2023-03-06T10:16:29.208Z,39.20
2023-03-06T10:19:17.214Z,40.57
2023-03-06T10:22:04.858Z,39.88
2023-03-06T10:24:54.823Z,40.71
2023-03-06T10:27:49.548Z,43.19
2023-03-06T10:30:42.338Z,41.56
2023-03-06T10:33:40.095Z,42.34
2023-03-06T10:36:27.422Z,42.29
2023-03-06T10:39:16.759Z,42.81
2023-03-06T10:42:01.725Z,42.58
2023-03-06T10:44:45.333Z,35.50
2023-03-06T10:47:31.407Z,29.74
2023-03-06T10:50:28.015Z,35.02
2023-03-06T10:53:21.637Z,37.25
2023-03-06T10:56:05.539Z,38.71
2023-03-06T10:59:07.742Z,39.79
2023-03-06T11:01:52.463Z,42.19
2023-03-06T11:04:37.748Z,43.73
2023-03-06T11:07:23.051Z,46.06
2023-03-06T11:10:18.181Z,46.34
2023-03-06T11:13:06.329Z,43.70
2023-03-06T11:15:57.906Z,38.85
2023-03-06T11:18:43.452Z,34.42
2023-03-06T11:21:31.649Z,30.29
2023-03-06T11:24:20.009Z,27.76
2023-03-06T11:27:10.623Z,24.98
2023-03-06T11:29:56.308Z,23.60
2023-03-06T11:32:47.360Z,22.00
2023-03-06T11:35:35.867Z,20.74
2023-03-06T11:38:24.819Z,21.98
2023-03-06T11:41:19.737Z,25.15
2023-03-06T11:44:13.978Z,28.10
2023-03-06T11:47:13.926Z,30.00
2023-03-06T11:50:14.996Z,27.54
2023-03-06T11:52:59.994Z,24.31
2023-03-06T11:55:52.212Z,22.82
2023-03-06T11:58:58.177Z,21.15
2023-03-06T12:01:50.809Z,19.59
2023-03-06T12:04:52.485Z,19.23
2023-03-06T12:07:47.596Z,19.06
2023-03-06T12:10:37.327Z,18.43
2023-03-06T12:13:30.395Z,18.24
2023-03-06T12:16:50.321Z,18.07
2023-03-06T12:19:44.967Z,17.28
2023-03-06T12:22:57.975Z,17.26
2023-03-06T12:25:54.191Z,17.19
2023-03-06T12:28:51.569Z,16.94
2023-03-06T12:32:05.340Z,16.87
2023-03-06T12:35:06.156Z,16.88
2023-03-06T12:38:08.548Z,16.28
2023-03-06T12:41:04.833Z,16.26
2023-03-06T12:44:21.544Z,15.62
2023-03-06T12:47:12.079Z,15.35
2023-03-06T12:50:00.872Z,15.20
2023-03-06T12:52:45.137Z,15.09
2023-03-06T12:55:41.695Z,14.93
2023-03-06T12:58:53.301Z,15.41
2023-03-06T13:02:06.141Z,15.65
2023-03-06T13:05:02.649Z,15.66
2023-03-06T13:07:59.209Z,15.96
2023-03-06T13:10:49.340Z,15.68
2023-03-06T13:13:34.410Z,15.59
2023-03-06T13:16:28.393Z,15.31
2023-03-06T13:19:17.684Z,15.49
2023-03-06T13:22:06.656Z,15.36
2023-03-06T13:25:28.998Z,15.57
2023-03-06T13:28:25.430Z,15.68
2023-03-06T13:31:21.343Z,15.80
2023-03-06T13:34:36.439Z,15.59
2023-03-06T13:38:00.628Z,16.07
2023-03-06T13:40:44.148Z,15.90
2023-03-06T13:43:27.686Z,15.64
2023-03-06T13:46:26.030Z,15.00
2023-03-06T13:49:24.426Z,14.61
2023-03-06T13:52:19.690Z,14.73
2023-03-06T13:55:12.429Z,14.60
2023-03-06T13:58:12.154Z,14.16
2023-03-06T14:01:17.731Z,13.98
2023-03-06T14:04:34.619Z,13.83
2023-03-06T14:07:26.177Z,13.96
2023-03-06T14:10:22.316Z,13.88
2023-03-06T14:13:09.573Z,13.75
2023-03-06T14:15:54.687Z,13.38
2023-03-06T14:18:44.161Z,13.43
2023-03-06T14:21:31.660Z,13.65
2023-03-06T14:24:20.121Z,13.71
2023-03-06T14:27:03.956Z,13.74
2023-03-06T14:29:48.832Z,13.80
2023-03-06T14:32:32.809Z,13.58
2023-03-06T14:35:27.997Z,13.51
2023-03-06T14:42:21.320Z,13.28
2023-03-06T14:45:16.095Z,13.11
2023-03-06T14:47:59.282Z,13.05
2023-03-06T14:50:47.709Z,12.97
2023-03-06T14:53:33.933Z,12.92
2023-03-06T14:56:21.233Z,12.82
2023-03-06T14:59:11.969Z,12.70
2023-03-06T15:02:01.150Z,12.41
2023-03-06T15:04:47.660Z,12.11
2023-03-06T15:07:37.610Z,11.98
2023-03-06T15:10:26.338Z,11.87
2023-03-06T15:13:11.513Z,11.78
2023-03-06T15:16:01.366Z,11.61
2023-03-06T15:18:57.209Z,11.54
2023-03-06T15:21:41.108Z,11.49
2023-03-06T15:24:35.724Z,11.53
2023-03-06T15:27:21.461Z,11.48
2023-03-06T15:30:23.623Z,11.53
2023-03-06T15:33:21.530Z,11.59
2023-03-06T15:36:07.149Z,11.65
2023-03-06T15:38:50.591Z,11.52
2023-03-06T15:41:36.882Z,11.43
2023-03-06T15:44:20.152Z,11.27
2023-03-06T15:47:08.821Z,11.07
2023-03-06T15:49:53.847Z,10.96
2023-03-06T15:52:38.383Z,10.89
2023-03-06T15:55:23.829Z,10.90
2023-03-06T15:58:07.806Z,10.84
2023-03-06T16:00:51.046Z,10.68
2023-03-06T16:03:34.348Z,10.59
2023-03-06T16:06:21.521Z,10.61
2023-03-06T16:09:05.953Z,10.58
2023-03-06T16:11:49.957Z,10.63
2023-03-06T16:14:33.803Z,10.56
2023-03-06T16:17:17.758Z,10.57
2023-03-06T16:20:01.353Z,10.46
2023-03-06T16:22:46.801Z,10.44
2023-03-06T16:25:33.420Z,10.37
2023-03-06T16:28:18.149Z,10.32
2023-03-06T16:31:01.505Z,10.15
2023-03-06T16:33:44.841Z,10.03
2023-03-06T16:36:30.550Z,10.06
2023-03-06T16:39:17.757Z,10.06
2023-03-06T16:42:00.999Z,9.99
2023-03-06T16:44:44.143Z,10.02
2023-03-06T16:47:27.370Z,10.04
2023-03-06T16:50:23.034Z,10.03
2023-03-06T16:53:07.317Z,10.00
2023-03-06T16:55:52.237Z,9.97
2023-03-06T16:58:35.641Z,9.98
2023-03-06T17:01:21.033Z,10.04
2023-03-06T17:04:04.505Z,9.98
2023-03-06T17:06:48.453Z,9.98
2023-03-06T17:09:32.466Z,9.98
2023-03-06T17:12:17.046Z,10.06
2023-03-06T17:15:00.476Z,10.02
2023-03-06T17:17:44.038Z,9.88
2023-03-06T17:20:27.274Z,9.86
2023-03-06T17:23:10.625Z,9.87
2023-03-06T17:25:54.227Z,9.73
2023-03-06T17:28:40.393Z,9.73
2023-03-06T17:31:25.514Z,9.60
2023-03-06T17:34:08.937Z,9.61
2023-03-06T17:36:52.287Z,9.61
2023-03-06T17:39:37.302Z,9.61
2023-03-06T17:42:20.461Z,9.52
2023-03-06T17:45:06.188Z,9.50
2023-03-06T17:47:49.664Z,9.42
2023-03-06T17:50:32.999Z,9.33
2023-03-06T17:53:16.187Z,9.41
2023-03-06T17:55:59.603Z,9.36
2023-03-06T17:58:43.335Z,9.44
2023-03-06T18:01:30.068Z,9.45
2023-03-06T18:04:13.572Z,9.52
2023-03-06T18:06:57.273Z,9.60
2023-03-06T18:09:42.809Z,9.61
2023-03-06T18:12:26.113Z,9.55
2023-03-06T18:15:10.381Z,9.41
2023-03-06T18:17:56.715Z,9.38
2023-03-06T18:20:43.314Z,9.32
2023-03-06T18:23:27.318Z,9.23
2023-03-06T18:26:12.064Z,9.26
2023-03-06T18:28:57.642Z,9.22
2023-03-06T18:31:42.673Z,9.14
2023-03-06T18:34:27.601Z,9.13
2023-03-06T18:37:11.295Z,9.09
2023-03-06T18:39:55.251Z,9.04
2023-03-06T18:42:38.498Z,9.11
2023-03-06T18:45:22.156Z,9.18
2023-03-06T18:48:06.013Z,9.24
2023-03-06T18:50:52.049Z,9.31
2023-03-06T18:53:35.426Z,9.60
2023-03-06T18:56:20.897Z,9.69
2023-03-06T18:59:05.028Z,9.70
2023-03-06T19:01:50.043Z,9.72
2023-03-06T19:04:33.423Z,9.63
2023-03-06T19:07:18.668Z,9.68
2023-03-06T19:10:05.172Z,9.71
2023-03-06T19:12:48.488Z,9.94
2023-03-06T19:15:32.885Z,9.95
2023-03-06T19:18:18.023Z,9.99
2023-03-06T19:21:11.492Z,10.01
2023-03-06T19:23:56.858Z,9.91
2023-03-06T19:26:40.788Z,10.03
2023-03-06T19:29:24.071Z,9.98
2023-03-06T19:32:08.135Z,10.12
2023-03-06T19:34:51.570Z,9.96
2023-03-06T19:37:37.360Z,10.06
2023-03-06T19:40:24.899Z,10.00
2023-03-06T19:43:08.392Z,9.83
2023-03-06T19:45:52.396Z,9.82
2023-03-06T19:48:35.698Z,9.92
2023-03-06T19:51:18.995Z,9.88
2023-03-06T19:54:02.255Z,9.87
2023-03-06T19:56:46.962Z,9.82
2023-03-06T19:59:30.552Z,9.94
2023-03-06T20:02:15.617Z,9.86
2023-03-06T20:04:59.009Z,9.84
2023-03-06T20:07:42.235Z,9.87
2023-03-06T20:10:26.909Z,9.94
2023-03-06T20:13:13.495Z,9.71
2023-03-06T20:15:58.367Z,9.77
2023-03-06T20:18:41.979Z,9.66
2023-03-06T20:21:26.082Z,9.68
2023-03-06T20:24:11.034Z,9.74
2023-03-06T20:26:57.584Z,9.66
2023-03-06T20:29:44.776Z,9.72
2023-03-06T20:32:28.026Z,9.68
2023-03-06T20:35:11.641Z,9.52
2023-03-06T20:37:59.949Z,9.45
2023-03-06T20:40:45.039Z,9.34
2023-03-06T20:43:28.306Z,9.33
2023-03-06T20:46:14.231Z,9.30
2023-03-06T20:48:58.404Z,9.34
2023-03-06T20:51:43.066Z,9.28
2023-03-06T20:54:26.439Z,9.22
2023-03-06T20:57:09.990Z,9.19
2023-03-06T20:59:53.342Z,9.16
2023-03-06T21:02:37.945Z,9.21
2023-03-06T21:05:21.246Z,9.19
2023-03-06T21:08:04.596Z,9.11
2023-03-06T21:10:48.986Z,9.03
2023-03-06T21:13:33.251Z,9.01
2023-03-06T21:16:19.764Z,9.07
2023-03-06T21:19:05.367Z,9.14
2023-03-06T21:21:48.883Z,9.10
2023-03-06T21:24:32.237Z,9.10
2023-03-06T21:27:15.505Z,9.09
2023-03-06T21:29:58.821Z,9.23
2023-03-06T21:32:42.402Z,9.17
2023-03-06T21:35:27.218Z,9.23
2023-03-06T21:38:10.746Z,9.29
2023-03-06T21:40:56.164Z,9.26
2023-03-06T21:43:39.606Z,9.12
2023-03-06T21:46:22.947Z,9.14
2023-03-06T21:49:09.677Z,9.13
2023-03-06T21:51:55.278Z,9.11
2023-03-06T21:54:38.614Z,9.02
2023-03-06T21:57:22.230Z,9.00
2023-03-06T22:00:08.940Z,8.92
2023-03-06T22:02:52.437Z,8.81
2023-03-06T22:05:35.938Z,8.78
2023-03-06T22:08:21.672Z,8.68
2023-03-06T22:11:09.745Z,8.63
2023-03-06T22:13:53.560Z,8.76
2023-03-06T22:16:39.781Z,8.77
2023-03-06T22:19:23.058Z,8.81
2023-03-06T22:22:08.719Z,8.88
2023-03-06T22:24:54.666Z,8.88
2023-03-06T22:27:37.968Z,8.88
2023-03-06T22:30:22.335Z,8.85
2023-03-06T22:33:05.902Z,8.81
2023-03-06T22:35:49.200Z,8.86
2023-03-06T22:38:35.637Z,9.06
2023-03-06T22:41:22.007Z,9.13
2023-03-06T22:44:05.750Z,9.17
2023-03-06T22:46:51.456Z,9.21
2023-03-06T22:49:34.771Z,9.21
2023-03-06T22:52:19.745Z,9.18
2023-03-06T22:55:03.405Z,9.04
2023-03-06T22:57:48.028Z,8.64
2023-03-06T23:00:31.629Z,8.47
2023-03-06T23:03:14.816Z,8.30
2023-03-06T23:05:58.269Z,8.07
2023-03-06T23:08:41.618Z,7.98
2023-03-06T23:11:27.836Z,8.13
2023-03-06T23:14:13.977Z,8.00
2023-03-06T23:16:57.274Z,7.77
2023-03-06T23:19:40.758Z,7.56
2023-03-06T23:22:24.460Z,7.44
2023-03-06T23:25:08.920Z,7.24
2023-03-06T23:27:52.540Z,7.13
2023-03-06T23:30:39.537Z,7.32
2023-03-06T23:33:22.996Z,7.53
2023-03-06T23:36:08.513Z,7.47
2023-03-06T23:38:52.238Z,7.66
2023-03-06T23:41:35.825Z,7.70
2023-03-06T23:44:19.751Z,7.77
2023-03-06T23:47:04.403Z,7.91
2023-03-06T23:49:47.773Z,7.76
2023-03-06T23:52:31.155Z,7.68
2023-03-06T23:55:14.277Z,7.47
2023-03-06T23:57:57.709Z,7.59
